sensor_id;sensor_type;location;lat;lon;timestamp;temperature;humidity
34985;DHT22;21190;58.750;17.004;2022-11-15T00:02:20;8.30;99.90
34985;DHT22;21190;58.750;17.004;2022-11-15T00:04:47;8.30;99.90
34985;DHT22;21190;58.750;17.004;2022-11-15T00:07:14;8.30;99.90
34985;DHT22;21190;58.750;17.004;2022-11-15T00:10:01;8.20;99.90
34985;DHT22;21190;58.750;17.004;2022-11-15T00:12:28;8.20;99.90
34985;DHT22;21190;58.750;17.004;2022-11-15T00:14:55;8.30;99.90
34985;DHT22;21190;58.750;17.004;2022-11-15T00:17:22;8.20;99.90
34985;DHT22;21190;58.750;17.004;2022-11-15T00:19:49;8.20;99.90
34985;DHT22;21190;58.750;17.004;2022-11-15T00:22:16;8.20;99.90
34985;DHT22;21190;58.750;17.004;2022-11-15T00:24:43;8.20;99.90
34985;DHT22;21190;58.750;17.004;2022-11-15T00:27:09;8.30;99.90
34985;DHT22;21190;58.750;17.004;2022-11-15T00:29:36;8.30;99.90
34985;DHT22;21190;58.750;17.004;2022-11-15T00:32:05;8.30;99.90
34985;DHT22;21190;58.750;17.004;2022-11-15T00:34:32;8.30;99.90
34985;DHT22;21190;58.750;17.004;2022-11-15T00:36:58;8.30;99.90
34985;DHT22;21190;58.750;17.004;2022-11-15T00:39:25;8.30;99.90
34985;DHT22;21190;58.750;17.004;2022-11-15T00:41:52;8.20;99.90
34985;DHT22;21190;58.750;17.004;2022-11-15T00:44:19;8.30;99.90
34985;DHT22;21190;58.750;17.004;2022-11-15T00:46:46;8.30;99.90
34985;DHT22;21190;58.750;17.004;2022-11-15T00:49:13;8.20;99.90
34985;DHT22;21190;58.750;17.004;2022-11-15T00:51:40;8.30;99.90
34985;DHT22;21190;58.750;17.004;2022-11-15T00:54:07;8.30;99.90
34985;DHT22;21190;58.750;17.004;2022-11-15T00:56:33;8.20;99.90
34985;DHT22;21190;58.750;17.004;2022-11-15T00:59:00;8.30;99.90
34985;DHT22;21190;58.750;17.004;2022-11-15T01:01:27;8.30;99.90
34985;DHT22;21190;58.750;17.004;2022-11-15T01:03:54;8.30;99.90
34985;DHT22;21190;58.750;17.004;2022-11-15T01:06:26;8.20;99.90
34985;DHT22;21190;58.750;17.004;2022-11-15T01:08:53;8.20;99.90
34985;DHT22;21190;58.750;17.004;2022-11-15T01:11:20;8.30;99.90
34985;DHT22;21190;58.750;17.004;2022-11-15T01:13:47;8.20;99.90
34985;DHT22;21190;58.750;17.004;2022-11-15T01:16:15;8.20;99.90
34985;DHT22;21190;58.750;17.004;2022-11-15T01:18:43;8.20;99.90
34985;DHT22;21190;58.750;17.004;2022-11-15T01:21:12;8.20;99.90
34985;DHT22;21190;58.750;17.004;2022-11-15T01:23:40;8.20;99.90
34985;DHT22;21190;58.750;17.004;2022-11-15T01:26:09;8.20;99.90
34985;DHT22;21190;58.750;17.004;2022-11-15T01:28:37;8.20;99.90
34985;DHT22;21190;58.750;17.004;2022-11-15T01:31:06;8.20;99.90
34985;DHT22;21190;58.750;17.004;2022-11-15T01:33:33;8.20;99.90
34985;DHT22;21190;58.750;17.004;2022-11-15T01:36:05;8.10;99.90
34985;DHT22;21190;58.750;17.004;2022-11-15T01:38:32;8.20;99.90
34985;DHT22;21190;58.750;17.004;2022-11-15T01:40:59;8.10;99.90
34985;DHT22;21190;58.750;17.004;2022-11-15T01:43:27;8.20;99.90
34985;DHT22;21190;58.750;17.004;2022-11-15T01:45:56;8.10;99.90
34985;DHT22;21190;58.750;17.004;2022-11-15T01:48:25;8.10;99.90
34985;DHT22;21190;58.750;17.004;2022-11-15T01:50:54;8.10;99.90
34985;DHT22;21190;58.750;17.004;2022-11-15T01:53:21;8.10;99.90
34985;DHT22;21190;58.750;17.004;2022-11-15T01:55:50;8.20;99.90
34985;DHT22;21190;58.750;17.004;2022-11-15T01:58:17;8.10;99.90
34985;DHT22;21190;58.750;17.004;2022-11-15T02:00:44;8.10;99.90
34985;DHT22;21190;58.750;17.004;2022-11-15T02:03:11;8.10;99.90
34985;DHT22;21190;58.750;17.004;2022-11-15T02:05:38;8.00;99.90
34985;DHT22;21190;58.750;17.004;2022-11-15T02:08:05;8.00;99.90
34985;DHT22;21190;58.750;17.004;2022-11-15T02:10:32;8.00;99.90
34985;DHT22;21190;58.750;17.004;2022-11-15T02:12:59;8.10;99.90
34985;DHT22;21190;58.750;17.004;2022-11-15T02:15:28;8.10;99.90
34985;DHT22;21190;58.750;17.004;2022-11-15T02:18:11;8.20;99.90
34985;DHT22;21190;58.750;17.004;2022-11-15T02:33:53;8.00;99.90
34985;DHT22;21190;58.750;17.004;2022-11-15T02:41:35;8.10;99.90
34985;DHT22;21190;58.750;17.004;2022-11-15T02:44:16;8.00;99.90
34985;DHT22;21190;58.750;17.004;2022-11-15T02:49:31;8.00;99.90
34985;DHT22;21190;58.750;17.004;2022-11-15T02:51:58;8.00;99.90
34985;DHT22;21190;58.750;17.004;2022-11-15T02:54:26;8.00;99.90
34985;DHT22;21190;58.750;17.004;2022-11-15T02:56:54;8.00;99.90
34985;DHT22;21190;58.750;17.004;2022-11-15T03:07:35;8.00;99.90
34985;DHT22;21190;58.750;17.004;2022-11-15T03:12:34;8.00;99.90
34985;DHT22;21190;58.750;17.004;2022-11-15T03:15:06;8.00;99.90
34985;DHT22;21190;58.750;17.004;2022-11-15T03:17:36;7.90;99.90
34985;DHT22;21190;58.750;17.004;2022-11-15T03:20:05;7.90;99.90
34985;DHT22;21190;58.750;17.004;2022-11-15T03:22:39;7.80;99.90
34985;DHT22;21190;58.750;17.004;2022-11-15T03:25:07;7.90;99.90
34985;DHT22;21190;58.750;17.004;2022-11-15T03:27:36;7.90;99.90
34985;DHT22;21190;58.750;17.004;2022-11-15T03:30:05;7.90;99.90
34985;DHT22;21190;58.750;17.004;2022-11-15T03:32:34;7.90;99.90
34985;DHT22;21190;58.750;17.004;2022-11-15T03:35:06;7.90;99.90
34985;DHT22;21190;58.750;17.004;2022-11-15T03:40:01;7.90;99.90
34985;DHT22;21190;58.750;17.004;2022-11-15T03:45:50;7.80;99.90
34985;DHT22;21190;58.750;17.004;2022-11-15T03:48:12;7.80;99.90
34985;DHT22;21190;58.750;17.004;2022-11-15T03:50:40;7.70;99.90
34985;DHT22;21190;58.750;17.004;2022-11-15T03:53:08;7.70;99.90
34985;DHT22;21190;58.750;17.004;2022-11-15T03:55:35;7.70;99.90
34985;DHT22;21190;58.750;17.004;2022-11-15T03:58:01;7.60;99.90
34985;DHT22;21190;58.750;17.004;2022-11-15T04:00:28;7.50;99.90
34985;DHT22;21190;58.750;17.004;2022-11-15T04:02:55;7.40;99.90
34985;DHT22;21190;58.750;17.004;2022-11-15T04:05:22;7.50;99.90
34985;DHT22;21190;58.750;17.004;2022-11-15T04:07:49;7.40;99.90
34985;DHT22;21190;58.750;17.004;2022-11-15T04:10:16;7.40;99.90
34985;DHT22;21190;58.750;17.004;2022-11-15T04:12:44;7.20;99.90
34985;DHT22;21190;58.750;17.004;2022-11-15T04:15:13;7.20;99.90
34985;DHT22;21190;58.750;17.004;2022-11-15T04:17:42;7.10;99.90
34985;DHT22;21190;58.750;17.004;2022-11-15T04:20:14;7.10;99.90
34985;DHT22;21190;58.750;17.004;2022-11-15T04:23:00;7.20;99.90
34985;DHT22;21190;58.750;17.004;2022-11-15T04:25:47;7.20;99.90
34985;DHT22;21190;58.750;17.004;2022-11-15T04:28:16;7.20;99.90
34985;DHT22;21190;58.750;17.004;2022-11-15T04:30:43;7.20;99.90
34985;DHT22;21190;58.750;17.004;2022-11-15T04:33:10;7.20;99.90
34985;DHT22;21190;58.750;17.004;2022-11-15T04:35:36;7.10;99.90
34985;DHT22;21190;58.750;17.004;2022-11-15T04:38:04;7.10;99.90
34985;DHT22;21190;58.750;17.004;2022-11-15T04:40:32;7.10;99.90
34985;DHT22;21190;58.750;17.004;2022-11-15T04:42:59;7.00;99.90
34985;DHT22;21190;58.750;17.004;2022-11-15T04:45:29;7.00;99.90
34985;DHT22;21190;58.750;17.004;2022-11-15T04:47:56;7.00;99.90
34985;DHT22;21190;58.750;17.004;2022-11-15T04:50:23;6.90;99.90
34985;DHT22;21190;58.750;17.004;2022-11-15T04:52:51;6.90;99.90
34985;DHT22;21190;58.750;17.004;2022-11-15T04:55:18;6.80;99.90
34985;DHT22;21190;58.750;17.004;2022-11-15T04:57:45;6.80;99.90
34985;DHT22;21190;58.750;17.004;2022-11-15T05:00:12;6.80;99.90
34985;DHT22;21190;58.750;17.004;2022-11-15T05:02:40;6.80;99.90
34985;DHT22;21190;58.750;17.004;2022-11-15T05:05:25;6.80;99.90
34985;DHT22;21190;58.750;17.004;2022-11-15T05:07:52;6.80;99.90
34985;DHT22;21190;58.750;17.004;2022-11-15T05:10:19;6.80;99.90
34985;DHT22;21190;58.750;17.004;2022-11-15T05:12:46;6.80;99.90
34985;DHT22;21190;58.750;17.004;2022-11-15T05:15:13;6.80;99.90
34985;DHT22;21190;58.750;17.004;2022-11-15T05:17:40;6.80;99.90
34985;DHT22;21190;58.750;17.004;2022-11-15T05:20:07;6.80;99.90
34985;DHT22;21190;58.750;17.004;2022-11-15T05:22:34;6.70;99.90
34985;DHT22;21190;58.750;17.004;2022-11-15T05:25:01;6.60;99.90
34985;DHT22;21190;58.750;17.004;2022-11-15T05:27:28;6.60;99.90
34985;DHT22;21190;58.750;17.004;2022-11-15T05:29:55;6.60;99.90
34985;DHT22;21190;58.750;17.004;2022-11-15T05:32:22;6.60;99.90
34985;DHT22;21190;58.750;17.004;2022-11-15T05:34:49;6.70;99.90
34985;DHT22;21190;58.750;17.004;2022-11-15T05:37:16;6.60;99.90
34985;DHT22;21190;58.750;17.004;2022-11-15T05:39:43;6.60;99.90
34985;DHT22;21190;58.750;17.004;2022-11-15T05:42:11;6.60;99.90
34985;DHT22;21190;58.750;17.004;2022-11-15T05:44:40;6.60;99.90
34985;DHT22;21190;58.750;17.004;2022-11-15T05:47:08;6.60;99.90
34985;DHT22;21190;58.750;17.004;2022-11-15T05:49:36;6.60;99.90
34985;DHT22;21190;58.750;17.004;2022-11-15T05:52:05;6.50;99.90
34985;DHT22;21190;58.750;17.004;2022-11-15T05:54:33;6.50;99.90
34985;DHT22;21190;58.750;17.004;2022-11-15T05:57:00;6.50;99.90
34985;DHT22;21190;58.750;17.004;2022-11-15T05:59:28;6.50;99.90
34985;DHT22;21190;58.750;17.004;2022-11-15T06:01:56;6.50;99.90
34985;DHT22;21190;58.750;17.004;2022-11-15T06:04:23;6.50;99.90
34985;DHT22;21190;58.750;17.004;2022-11-15T06:06:50;6.50;99.90
34985;DHT22;21190;58.750;17.004;2022-11-15T06:09:17;6.50;99.90
34985;DHT22;21190;58.750;17.004;2022-11-15T06:11:44;6.50;99.90
34985;DHT22;21190;58.750;17.004;2022-11-15T06:14:11;6.50;99.90
34985;DHT22;21190;58.750;17.004;2022-11-15T06:16:38;6.50;99.90
34985;DHT22;21190;58.750;17.004;2022-11-15T06:19:07;6.40;99.90
34985;DHT22;21190;58.750;17.004;2022-11-15T06:21:34;6.40;99.90
34985;DHT22;21190;58.750;17.004;2022-11-15T06:24:01;6.40;99.90
34985;DHT22;21190;58.750;17.004;2022-11-15T06:26:28;6.40;99.90
34985;DHT22;21190;58.750;17.004;2022-11-15T06:28:55;6.50;99.90
34985;DHT22;21190;58.750;17.004;2022-11-15T06:31:22;6.50;99.90
34985;DHT22;21190;58.750;17.004;2022-11-15T06:33:48;6.50;99.90
34985;DHT22;21190;58.750;17.004;2022-11-15T06:36:16;6.40;99.90
34985;DHT22;21190;58.750;17.004;2022-11-15T06:38:44;6.40;99.90
34985;DHT22;21190;58.750;17.004;2022-11-15T06:41:11;6.40;99.90
34985;DHT22;21190;58.750;17.004;2022-11-15T06:43:39;6.30;99.90
34985;DHT22;21190;58.750;17.004;2022-11-15T06:46:06;6.40;99.90
34985;DHT22;21190;58.750;17.004;2022-11-15T06:48:33;6.30;99.90
34985;DHT22;21190;58.750;17.004;2022-11-15T06:51:01;6.30;99.90
34985;DHT22;21190;58.750;17.004;2022-11-15T06:53:28;6.30;99.90
34985;DHT22;21190;58.750;17.004;2022-11-15T06:56:02;6.30;99.90
34985;DHT22;21190;58.750;17.004;2022-11-15T06:58:29;6.40;99.90
34985;DHT22;21190;58.750;17.004;2022-11-15T07:01:00;6.30;99.90
34985;DHT22;21190;58.750;17.004;2022-11-15T07:03:28;6.40;99.90
34985;DHT22;21190;58.750;17.004;2022-11-15T07:05:55;6.40;99.90
34985;DHT22;21190;58.750;17.004;2022-11-15T07:08:28;6.40;99.90
34985;DHT22;21190;58.750;17.004;2022-11-15T07:10:59;6.40;99.90
34985;DHT22;21190;58.750;17.004;2022-11-15T07:13:27;6.40;99.90
34985;DHT22;21190;58.750;17.004;2022-11-15T07:15:55;6.40;99.90
34985;DHT22;21190;58.750;17.004;2022-11-15T07:18:22;6.40;99.90
34985;DHT22;21190;58.750;17.004;2022-11-15T07:20:49;6.40;99.90
34985;DHT22;21190;58.750;17.004;2022-11-15T07:23:15;6.40;99.90
34985;DHT22;21190;58.750;17.004;2022-11-15T07:25:42;6.40;99.90
34985;DHT22;21190;58.750;17.004;2022-11-15T07:28:09;6.40;99.90
34985;DHT22;21190;58.750;17.004;2022-11-15T07:30:36;6.40;99.90
34985;DHT22;21190;58.750;17.004;2022-11-15T07:33:10;6.40;99.90
34985;DHT22;21190;58.750;17.004;2022-11-15T07:35:37;6.40;99.90
34985;DHT22;21190;58.750;17.004;2022-11-15T07:38:04;6.40;99.90
34985;DHT22;21190;58.750;17.004;2022-11-15T07:40:31;6.50;99.90
34985;DHT22;21190;58.750;17.004;2022-11-15T07:42:59;6.40;99.90
34985;DHT22;21190;58.750;17.004;2022-11-15T07:45:26;6.40;99.90
34985;DHT22;21190;58.750;17.004;2022-11-15T07:47:53;6.50;99.90
34985;DHT22;21190;58.750;17.004;2022-11-15T07:50:20;6.50;99.90
34985;DHT22;21190;58.750;17.004;2022-11-15T07:52:47;6.50;99.90
34985;DHT22;21190;58.750;17.004;2022-11-15T07:55:14;6.50;99.90
34985;DHT22;21190;58.750;17.004;2022-11-15T07:57:40;6.50;99.90
34985;DHT22;21190;58.750;17.004;2022-11-15T08:00:07;6.60;99.90
34985;DHT22;21190;58.750;17.004;2022-11-15T08:02:34;6.60;99.90
34985;DHT22;21190;58.750;17.004;2022-11-15T08:05:01;6.60;99.90
34985;DHT22;21190;58.750;17.004;2022-11-15T08:07:29;6.60;99.90
34985;DHT22;21190;58.750;17.004;2022-11-15T08:09:57;6.60;99.90
34985;DHT22;21190;58.750;17.004;2022-11-15T08:12:24;6.60;99.90
34985;DHT22;21190;58.750;17.004;2022-11-15T08:14:51;6.60;99.90
34985;DHT22;21190;58.750;17.004;2022-11-15T08:17:18;6.70;99.90
34985;DHT22;21190;58.750;17.004;2022-11-15T08:19:44;6.70;99.90
34985;DHT22;21190;58.750;17.004;2022-11-15T08:22:11;6.70;99.90
34985;DHT22;21190;58.750;17.004;2022-11-15T08:24:38;6.70;99.90
34985;DHT22;21190;58.750;17.004;2022-11-15T08:27:05;6.70;99.90
34985;DHT22;21190;58.750;17.004;2022-11-15T08:29:42;6.70;99.90
34985;DHT22;21190;58.750;17.004;2022-11-15T08:32:10;6.70;99.90
34985;DHT22;21190;58.750;17.004;2022-11-15T08:34:37;6.70;99.90
34985;DHT22;21190;58.750;17.004;2022-11-15T08:37:04;6.70;99.90
34985;DHT22;21190;58.750;17.004;2022-11-15T08:39:32;6.70;99.90
34985;DHT22;21190;58.750;17.004;2022-11-15T08:41:58;6.70;99.90
34985;DHT22;21190;58.750;17.004;2022-11-15T08:44:25;6.70;99.90
34985;DHT22;21190;58.750;17.004;2022-11-15T08:46:52;6.60;99.90
34985;DHT22;21190;58.750;17.004;2022-11-15T08:49:19;6.60;99.90
34985;DHT22;21190;58.750;17.004;2022-11-15T08:51:46;6.60;99.90
34985;DHT22;21190;58.750;17.004;2022-11-15T08:54:13;6.50;99.90
34985;DHT22;21190;58.750;17.004;2022-11-15T08:56:40;6.60;99.90
34985;DHT22;21190;58.750;17.004;2022-11-15T08:59:07;6.60;99.90
34985;DHT22;21190;58.750;17.004;2022-11-15T09:01:34;6.60;99.90
34985;DHT22;21190;58.750;17.004;2022-11-15T09:04:00;6.60;99.90
34985;DHT22;21190;58.750;17.004;2022-11-15T09:06:27;6.60;99.90
34985;DHT22;21190;58.750;17.004;2022-11-15T09:08:54;6.60;99.90
34985;DHT22;21190;58.750;17.004;2022-11-15T09:11:22;6.60;99.90
34985;DHT22;21190;58.750;17.004;2022-11-15T09:13:49;6.60;99.90
34985;DHT22;21190;58.750;17.004;2022-11-15T09:16:16;6.60;99.90
34985;DHT22;21190;58.750;17.004;2022-11-15T09:18:43;6.70;99.90
34985;DHT22;21190;58.750;17.004;2022-11-15T09:21:10;6.70;99.90
34985;DHT22;21190;58.750;17.004;2022-11-15T09:23:37;6.70;99.90
34985;DHT22;21190;58.750;17.004;2022-11-15T09:26:04;6.80;99.90
34985;DHT22;21190;58.750;17.004;2022-11-15T09:28:32;6.70;99.90
34985;DHT22;21190;58.750;17.004;2022-11-15T09:31:00;6.70;99.90
34985;DHT22;21190;58.750;17.004;2022-11-15T09:33:27;6.70;99.90
34985;DHT22;21190;58.750;17.004;2022-11-15T09:35:59;6.70;99.90
34985;DHT22;21190;58.750;17.004;2022-11-15T09:38:26;6.80;99.90
34985;DHT22;21190;58.750;17.004;2022-11-15T09:40:58;6.80;99.90
34985;DHT22;21190;58.750;17.004;2022-11-15T09:43:36;6.80;99.90
34985;DHT22;21190;58.750;17.004;2022-11-15T09:51:06;6.80;99.90
34985;DHT22;21190;58.750;17.004;2022-11-15T09:53:43;6.80;99.90
34985;DHT22;21190;58.750;17.004;2022-11-15T09:56:37;6.90;99.90
34985;DHT22;21190;58.750;17.004;2022-11-15T09:59:20;6.90;99.90
34985;DHT22;21190;58.750;17.004;2022-11-15T10:04:34;6.90;99.90
34985;DHT22;21190;58.750;17.004;2022-11-15T10:07:16;7.00;99.90
34985;DHT22;21190;58.750;17.004;2022-11-15T10:09:47;7.00;99.90
34985;DHT22;21190;58.750;17.004;2022-11-15T10:12:15;7.00;99.90
34985;DHT22;21190;58.750;17.004;2022-11-15T10:14:42;7.10;99.90
34985;DHT22;21190;58.750;17.004;2022-11-15T10:17:32;7.00;99.90
34985;DHT22;21190;58.750;17.004;2022-11-15T10:20:22;7.10;99.90
34985;DHT22;21190;58.750;17.004;2022-11-15T10:25:27;7.00;99.90
34985;DHT22;21190;58.750;17.004;2022-11-15T10:27:55;7.00;99.90
34985;DHT22;21190;58.750;17.004;2022-11-15T10:30:23;7.00;99.90
34985;DHT22;21190;58.750;17.004;2022-11-15T10:32:50;7.00;99.90
34985;DHT22;21190;58.750;17.004;2022-11-15T10:35:22;7.00;99.90
34985;DHT22;21190;58.750;17.004;2022-11-15T10:37:49;7.00;99.90
34985;DHT22;21190;58.750;17.004;2022-11-15T10:40:18;7.00;99.90
34985;DHT22;21190;58.750;17.004;2022-11-15T10:42:45;7.00;99.90
34985;DHT22;21190;58.750;17.004;2022-11-15T10:45:29;7.00;99.90
34985;DHT22;21190;58.750;17.004;2022-11-15T10:48:18;7.00;99.90
34985;DHT22;21190;58.750;17.004;2022-11-15T10:50:46;7.00;99.90
34985;DHT22;21190;58.750;17.004;2022-11-15T10:55:50;7.00;99.90
34985;DHT22;21190;58.750;17.004;2022-11-15T10:58:20;7.00;99.90
34985;DHT22;21190;58.750;17.004;2022-11-15T11:00:48;6.90;99.90
34985;DHT22;21190;58.750;17.004;2022-11-15T11:03:58;6.90;99.90
34985;DHT22;21190;58.750;17.004;2022-11-15T11:06:14;6.90;99.90
34985;DHT22;21190;58.750;17.004;2022-11-15T11:09:03;6.80;99.90
34985;DHT22;21190;58.750;17.004;2022-11-15T11:11:46;6.80;99.90
34985;DHT22;21190;58.750;17.004;2022-11-15T11:14:24;6.80;99.90
34985;DHT22;21190;58.750;17.004;2022-11-15T11:17:14;6.80;99.90
34985;DHT22;21190;58.750;17.004;2022-11-15T11:37:53;6.70;99.90
34985;DHT22;21190;58.750;17.004;2022-11-15T11:40:28;6.80;99.90
34985;DHT22;21190;58.750;17.004;2022-11-15T11:48:05;6.70;99.90
34985;DHT22;21190;58.750;17.004;2022-11-15T11:50:37;6.70;99.90
34985;DHT22;21190;58.750;17.004;2022-11-15T11:55:51;6.70;99.90
34985;DHT22;21190;58.750;17.004;2022-11-15T11:58:21;6.60;99.90
34985;DHT22;21190;58.750;17.004;2022-11-15T12:00:55;6.70;99.90
34985;DHT22;21190;58.750;17.004;2022-11-15T12:03:30;6.70;99.90
34985;DHT22;21190;58.750;17.004;2022-11-15T12:06:01;6.70;99.90
34985;DHT22;21190;58.750;17.004;2022-11-15T12:11:19;6.70;99.90
34985;DHT22;21190;58.750;17.004;2022-11-15T12:13:48;6.80;99.90
34985;DHT22;21190;58.750;17.004;2022-11-15T12:16:20;6.80;99.90
34985;DHT22;21190;58.750;17.004;2022-11-15T12:18:49;6.80;99.90
34985;DHT22;21190;58.750;17.004;2022-11-15T12:21:36;6.90;99.90
34985;DHT22;21190;58.750;17.004;2022-11-15T12:24:12;6.80;99.90
34985;DHT22;21190;58.750;17.004;2022-11-15T12:26:42;6.80;99.90
34985;DHT22;21190;58.750;17.004;2022-11-15T12:29:16;6.80;99.90
34985;DHT22;21190;58.750;17.004;2022-11-15T12:31:45;6.80;99.90
34985;DHT22;21190;58.750;17.004;2022-11-15T12:34:57;6.90;99.90
34985;DHT22;21190;58.750;17.004;2022-11-15T12:37:32;6.90;99.90
34985;DHT22;21190;58.750;17.004;2022-11-15T12:42:40;6.90;99.90
34985;DHT22;21190;58.750;17.004;2022-11-15T12:47:51;6.90;99.90
34985;DHT22;21190;58.750;17.004;2022-11-15T12:50:39;6.80;99.90
34985;DHT22;21190;58.750;17.004;2022-11-15T12:53:47;6.90;99.90
34985;DHT22;21190;58.750;17.004;2022-11-15T12:58:47;6.80;99.90
34985;DHT22;21190;58.750;17.004;2022-11-15T13:10:01;6.80;99.90
34985;DHT22;21190;58.750;17.004;2022-11-15T13:12:09;6.80;99.90
34985;DHT22;21190;58.750;17.004;2022-11-15T13:19:47;6.80;99.90
34985;DHT22;21190;58.750;17.004;2022-11-15T13:22:14;6.80;99.90
34985;DHT22;21190;58.750;17.004;2022-11-15T13:25:02;6.70;99.90
34985;DHT22;21190;58.750;17.004;2022-11-15T13:27:30;6.70;99.90
34985;DHT22;21190;58.750;17.004;2022-11-15T13:29:57;6.70;99.90
34985;DHT22;21190;58.750;17.004;2022-11-15T13:32:24;6.70;99.90
34985;DHT22;21190;58.750;17.004;2022-11-15T13:34:51;6.60;99.90
34985;DHT22;21190;58.750;17.004;2022-11-15T13:39:46;6.60;99.90
34985;DHT22;21190;58.750;17.004;2022-11-15T13:42:17;6.60;99.90
34985;DHT22;21190;58.750;17.004;2022-11-15T13:44:58;6.60;99.90
34985;DHT22;21190;58.750;17.004;2022-11-15T13:47:25;6.50;99.90
34985;DHT22;21190;58.750;17.004;2022-11-15T13:49:56;6.50;99.90
34985;DHT22;21190;58.750;17.004;2022-11-15T13:52:25;6.50;99.90
34985;DHT22;21190;58.750;17.004;2022-11-15T13:54:58;6.60;99.90
34985;DHT22;21190;58.750;17.004;2022-11-15T13:57:30;6.50;99.90
34985;DHT22;21190;58.750;17.004;2022-11-15T14:00:02;6.60;99.90
34985;DHT22;21190;58.750;17.004;2022-11-15T14:02:31;6.50;99.90
34985;DHT22;21190;58.750;17.004;2022-11-15T14:05:03;6.50;99.90
34985;DHT22;21190;58.750;17.004;2022-11-15T14:07:32;6.50;99.90
34985;DHT22;21190;58.750;17.004;2022-11-15T14:12:55;6.40;99.90
34985;DHT22;21190;58.750;17.004;2022-11-15T14:15:29;6.40;99.90
34985;DHT22;21190;58.750;17.004;2022-11-15T14:17:56;6.40;99.90
34985;DHT22;21190;58.750;17.004;2022-11-15T14:22:51;6.30;99.90
34985;DHT22;21190;58.750;17.004;2022-11-15T14:25:24;6.20;99.90
34985;DHT22;21190;58.750;17.004;2022-11-15T14:28:12;6.20;99.90
34985;DHT22;21190;58.750;17.004;2022-11-15T14:30:39;6.20;99.90
34985;DHT22;21190;58.750;17.004;2022-11-15T14:33:17;6.10;99.90
34985;DHT22;21190;58.750;17.004;2022-11-15T14:35:44;6.10;99.90
34985;DHT22;21190;58.750;17.004;2022-11-15T14:38:11;6.10;99.90
34985;DHT22;21190;58.750;17.004;2022-11-15T14:40:38;6.00;99.90
34985;DHT22;21190;58.750;17.004;2022-11-15T14:43:07;6.00;99.90
34985;DHT22;21190;58.750;17.004;2022-11-15T14:45:35;6.10;99.90
34985;DHT22;21190;58.750;17.004;2022-11-15T14:48:01;6.10;99.90
34985;DHT22;21190;58.750;17.004;2022-11-15T14:50:28;6.10;99.90
34985;DHT22;21190;58.750;17.004;2022-11-15T14:52:56;6.00;99.90
34985;DHT22;21190;58.750;17.004;2022-11-15T14:55:23;6.00;99.90
34985;DHT22;21190;58.750;17.004;2022-11-15T14:57:50;6.00;99.90
34985;DHT22;21190;58.750;17.004;2022-11-15T15:00:19;6.00;99.90
34985;DHT22;21190;58.750;17.004;2022-11-15T15:02:46;6.00;99.90
34985;DHT22;21190;58.750;17.004;2022-11-15T15:05:17;6.00;99.90
34985;DHT22;21190;58.750;17.004;2022-11-15T15:07:45;5.90;99.90
34985;DHT22;21190;58.750;17.004;2022-11-15T15:10:12;5.90;99.90
34985;DHT22;21190;58.750;17.004;2022-11-15T15:12:59;5.90;99.90
34985;DHT22;21190;58.750;17.004;2022-11-15T15:15:31;5.90;99.90
34985;DHT22;21190;58.750;17.004;2022-11-15T15:17:58;6.00;99.90
34985;DHT22;21190;58.750;17.004;2022-11-15T15:20:25;5.90;99.90
34985;DHT22;21190;58.750;17.004;2022-11-15T15:22:52;6.00;99.90
34985;DHT22;21190;58.750;17.004;2022-11-15T15:25:30;6.00;99.90
34985;DHT22;21190;58.750;17.004;2022-11-15T15:27:58;6.00;99.90
34985;DHT22;21190;58.750;17.004;2022-11-15T15:30:26;6.00;99.90
34985;DHT22;21190;58.750;17.004;2022-11-15T15:32:53;6.00;99.90
34985;DHT22;21190;58.750;17.004;2022-11-15T15:35:20;6.00;99.90
34985;DHT22;21190;58.750;17.004;2022-11-15T15:37:48;6.00;99.90
34985;DHT22;21190;58.750;17.004;2022-11-15T15:40:16;5.90;99.90
34985;DHT22;21190;58.750;17.004;2022-11-15T15:42:43;5.90;99.90
34985;DHT22;21190;58.750;17.004;2022-11-15T15:45:12;6.00;99.90
34985;DHT22;21190;58.750;17.004;2022-11-15T15:47:39;5.90;99.90
34985;DHT22;21190;58.750;17.004;2022-11-15T15:50:25;5.90;99.90
34985;DHT22;21190;58.750;17.004;2022-11-15T15:52:53;5.90;99.90
34985;DHT22;21190;58.750;17.004;2022-11-15T15:55:21;5.80;99.90
34985;DHT22;21190;58.750;17.004;2022-11-15T15:57:50;5.80;99.90
34985;DHT22;21190;58.750;17.004;2022-11-15T16:00:17;5.80;99.90
34985;DHT22;21190;58.750;17.004;2022-11-15T16:02:44;5.80;99.90
34985;DHT22;21190;58.750;17.004;2022-11-15T16:05:12;5.80;99.90
34985;DHT22;21190;58.750;17.004;2022-11-15T16:07:39;5.80;99.90
34985;DHT22;21190;58.750;17.004;2022-11-15T16:10:14;5.80;99.90
34985;DHT22;21190;58.750;17.004;2022-11-15T16:12:42;5.80;99.90
34985;DHT22;21190;58.750;17.004;2022-11-15T16:15:09;5.80;99.90
34985;DHT22;21190;58.750;17.004;2022-11-15T16:17:41;5.70;99.90
34985;DHT22;21190;58.750;17.004;2022-11-15T16:20:21;5.70;99.90
34985;DHT22;21190;58.750;17.004;2022-11-15T16:22:49;5.70;99.90
34985;DHT22;21190;58.750;17.004;2022-11-15T16:25:15;5.70;99.90
34985;DHT22;21190;58.750;17.004;2022-11-15T16:27:42;5.70;99.90
34985;DHT22;21190;58.750;17.004;2022-11-15T16:30:14;5.70;99.90
34985;DHT22;21190;58.750;17.004;2022-11-15T16:32:42;5.60;99.90
34985;DHT22;21190;58.750;17.004;2022-11-15T16:35:12;5.60;99.90
34985;DHT22;21190;58.750;17.004;2022-11-15T16:37:40;5.60;99.90
34985;DHT22;21190;58.750;17.004;2022-11-15T16:40:12;5.50;99.90
34985;DHT22;21190;58.750;17.004;2022-11-15T16:42:43;5.50;99.90
34985;DHT22;21190;58.750;17.004;2022-11-15T16:45:13;5.50;99.90
34985;DHT22;21190;58.750;17.004;2022-11-15T16:47:40;5.50;99.90
34985;DHT22;21190;58.750;17.004;2022-11-15T16:50:13;5.50;99.90
34985;DHT22;21190;58.750;17.004;2022-11-15T16:52:43;5.50;99.90
34985;DHT22;21190;58.750;17.004;2022-11-15T16:55:10;5.60;99.90
34985;DHT22;21190;58.750;17.004;2022-11-15T16:57:37;5.60;99.90
34985;DHT22;21190;58.750;17.004;2022-11-15T17:00:05;5.60;99.90
34985;DHT22;21190;58.750;17.004;2022-11-15T17:02:32;5.50;99.90
34985;DHT22;21190;58.750;17.004;2022-11-15T17:04:59;5.50;99.90
34985;DHT22;21190;58.750;17.004;2022-11-15T17:07:32;5.40;99.90
34985;DHT22;21190;58.750;17.004;2022-11-15T17:09:59;5.40;99.90
34985;DHT22;21190;58.750;17.004;2022-11-15T17:12:26;5.40;99.90
34985;DHT22;21190;58.750;17.004;2022-11-15T17:14:53;5.40;99.90
34985;DHT22;21190;58.750;17.004;2022-11-15T17:17:19;5.40;99.90
34985;DHT22;21190;58.750;17.004;2022-11-15T17:19:47;5.40;99.90
34985;DHT22;21190;58.750;17.004;2022-11-15T17:22:14;5.40;99.90
34985;DHT22;21190;58.750;17.004;2022-11-15T17:24:40;5.40;99.90
34985;DHT22;21190;58.750;17.004;2022-11-15T17:27:07;5.50;99.90
34985;DHT22;21190;58.750;17.004;2022-11-15T17:29:34;5.40;99.90
34985;DHT22;21190;58.750;17.004;2022-11-15T17:32:01;5.50;99.90
34985;DHT22;21190;58.750;17.004;2022-11-15T17:34:28;5.50;99.90